Time;durP1;ratioP1;P1;durP2;ratioP2;P2;SDS_P1;SDS_P2;PMS_P1;PMS_P2;Temp;Humidity;BMP_temperature;BMP_pressure;BME280_temperature;BME280_humidity;BME280_pressure;Samples;Min_cycle;Max_cycle;Signal;HPM_P1;HPM_P2
2022/01/17 00:01:42;;;;;;;13.40;4.57;;;;;;;;;;6127255;28;20239;-63
2022/01/17 00:05:03;;;;;;;13.03;3.57;;;;;;;;;;6130593;28;20231;-64
2022/01/17 00:08:24;;;;;;;18.57;5.33;;;;;;;;;;6138748;28;20242;-63
2022/01/17 00:11:48;;;;;;;8.33;2.67;;;;;;;;;;6131120;28;20330;-64
2022/01/17 00:15:15;;;;;;;9.90;3.50;;;;;;;;;;6125824;28;20243;-64
2022/01/17 00:19:07;;;;;;;14.73;4.20;;;;;;;;;;6130548;28;20235;-63
2022/01/17 00:22:27;;;;;;;11.67;3.40;;;;;;;;;;6129627;28;20231;-62
2022/01/17 00:25:48;;;;;;;12.70;3.70;;;;;;;;;;6134134;28;20715;-63
2022/01/17 00:29:08;;;;;;;10.57;4.50;;;;;;;;;;6135909;28;20231;-63
2022/01/17 00:32:29;;;;;;;11.97;3.03;;;;;;;;;;6133126;28;20546;-63
2022/01/17 00:35:51;;;;;;;15.93;4.00;;;;;;;;;;6132814;28;20235;-64
2022/01/17 00:39:12;;;;;;;10.93;4.23;;;;;;;;;;6136864;28;20251;-63
2022/01/17 00:42:32;;;;;;;13.47;3.67;;;;;;;;;;6135486;28;20247;-64
2022/01/17 00:45:53;;;;;;;12.70;4.40;;;;;;;;;;6134303;28;20239;-64
2022/01/17 00:49:13;;;;;;;13.13;2.67;;;;;;;;;;6132089;28;20231;-64
2022/01/17 00:52:35;;;;;;;16.87;4.33;;;;;;;;;;6131383;28;20232;-64
2022/01/17 00:55:56;;;;;;;11.67;5.13;;;;;;;;;;6126213;28;20242;-64
2022/01/17 00:59:16;;;;;;;14.93;3.67;;;;;;;;;;6126465;28;20236;-64
2022/01/17 01:02:37;;;;;;;12.67;3.87;;;;;;;;;;6128745;28;20279;-64
2022/01/17 01:05:58;;;;;;;10.67;3.93;;;;;;;;;;6135378;28;20679;-63
2022/01/17 01:09:20;;;;;;;12.60;3.13;;;;;;;;;;6131210;28;20235;-63
2022/01/17 01:12:41;;;;;;;9.60;3.43;;;;;;;;;;6132744;28;20231;-63
2022/01/17 01:16:24;;;;;;;16.43;3.70;;;;;;;;;;6120443;28;20239;-64
2022/01/17 01:19:45;;;;;;;12.97;3.50;;;;;;;;;;6126633;28;20236;-63
2022/01/17 01:30:25;;;;;;;7.47;3.07;;;;;;;;;;6122827;28;20875;-64
2022/01/17 01:33:52;;;;;;;17.53;4.33;;;;;;;;;;6129564;28;20294;-63
2022/01/17 01:37:13;;;;;;;9.53;3.43;;;;;;;;;;6123309;28;20231;-63
2022/01/17 01:40:34;;;;;;;15.13;4.20;;;;;;;;;;6134621;28;20239;-62
2022/01/17 01:43:56;;;;;;;16.13;3.67;;;;;;;;;;6127582;28;20244;-64
2022/01/17 01:47:20;;;;;;;13.43;4.30;;;;;;;;;;6127636;28;20234;-63
2022/01/17 01:50:40;;;;;;;13.90;3.83;;;;;;;;;;6128095;28;20236;-64
2022/01/17 01:54:00;;;;;;;13.33;4.47;;;;;;;;;;6135680;28;20247;-63
2022/01/17 01:57:21;;;;;;;10.73;4.20;;;;;;;;;;6127324;28;20227;-63
2022/01/17 02:00:43;;;;;;;12.87;3.30;;;;;;;;;;6127191;28;20223;-63
2022/01/17 02:04:07;;;;;;;11.53;3.50;;;;;;;;;;6121290;28;20231;-63
2022/01/17 02:07:28;;;;;;;14.17;5.07;;;;;;;;;;6131680;28;20248;-62
2022/01/17 02:10:48;;;;;;;10.17;3.30;;;;;;;;;;6132321;28;20612;-64
2022/01/17 02:14:08;;;;;;;14.07;4.73;;;;;;;;;;6126843;28;20597;-63
2022/01/17 02:17:33;;;;;;;17.13;4.40;;;;;;;;;;6130531;28;20243;-63
2022/01/17 02:21:11;;;;;;;17.50;4.47;;;;;;;;;;6129632;28;20232;-63
2022/01/17 02:24:32;;;;;;;13.93;4.07;;;;;;;;;;6148742;28;20302;-62
2022/01/17 02:27:53;;;;;;;19.13;5.37;;;;;;;;;;6127792;28;20231;-63
2022/01/17 02:31:13;;;;;;;15.03;4.33;;;;;;;;;;6139169;28;20227;-62
2022/01/17 02:34:39;;;;;;;14.63;4.40;;;;;;;;;;6131300;28;20636;-63
2022/01/17 02:38:01;;;;;;;15.10;4.10;;;;;;;;;;6135479;28;20235;-63
2022/01/17 02:41:22;;;;;;;15.97;5.47;;;;;;;;;;6127697;28;20266;-64
2022/01/17 02:44:45;;;;;;;11.90;4.20;;;;;;;;;;6130182;28;20258;-64
2022/01/17 02:48:07;;;;;;;12.50;3.10;;;;;;;;;;6126217;28;20227;-63
2022/01/17 02:51:28;;;;;;;14.10;4.30;;;;;;;;;;6127777;28;20227;-63
2022/01/17 02:54:50;;;;;;;10.27;3.60;;;;;;;;;;6132166;28;20263;-63
2022/01/17 02:58:11;;;;;;;12.17;3.63;;;;;;;;;;6128818;28;20544;-63
2022/01/17 03:01:31;;;;;;;11.07;4.30;;;;;;;;;;6127441;28;20681;-63
2022/01/17 03:04:52;;;;;;;14.57;4.23;;;;;;;;;;6129090;28;20322;-63
2022/01/17 03:08:13;;;;;;;14.63;6.20;;;;;;;;;;6127294;28;20325;-63
2022/01/17 03:11:35;;;;;;;12.10;3.47;;;;;;;;;;6130123;28;20230;-63
2022/01/17 03:14:55;;;;;;;12.90;4.07;;;;;;;;;;6131090;28;20512;-64
2022/01/17 03:18:16;;;;;;;14.73;6.17;;;;;;;;;;6127285;28;20235;-63
2022/01/17 03:21:37;;;;;;;18.30;5.13;;;;;;;;;;6132913;28;20271;-63
2022/01/17 03:24:57;;;;;;;15.87;4.40;;;;;;;;;;6127865;28;20235;-64
2022/01/17 03:28:19;;;;;;;11.20;2.77;;;;;;;;;;6120871;28;20232;-63
2022/01/17 03:31:39;;;;;;;23.80;4.33;;;;;;;;;;6130477;28;20516;-63
2022/01/17 03:35:00;;;;;;;9.70;3.13;;;;;;;;;;6126488;28;20330;-64
2022/01/17 03:38:22;;;;;;;13.47;5.10;;;;;;;;;;6128894;28;20520;-63
2022/01/17 03:41:43;;;;;;;9.27;4.00;;;;;;;;;;6133479;28;20614;-63
2022/01/17 03:45:07;;;;;;;10.50;3.17;;;;;;;;;;6136985;28;20235;-63
2022/01/17 03:48:29;;;;;;;12.27;4.63;;;;;;;;;;6138399;28;20287;-62
2022/01/17 03:51:49;;;;;;;15.07;3.40;;;;;;;;;;6134748;28;20314;-64
2022/01/17 03:55:12;;;;;;;15.23;3.17;;;;;;;;;;6109823;28;20263;-63
2022/01/17 03:58:32;;;;;;;19.43;4.07;;;;;;;;;;6136258;28;20235;-63
2022/01/17 04:01:54;;;;;;;13.33;3.73;;;;;;;;;;6130356;28;20644;-61
2022/01/17 04:05:14;;;;;;;16.87;4.37;;;;;;;;;;6125666;28;20558;-63
2022/01/17 04:08:35;;;;;;;17.50;4.43;;;;;;;;;;6121388;28;20228;-63
2022/01/17 04:11:56;;;;;;;11.17;4.00;;;;;;;;;;6136670;28;20238;-63
2022/01/17 04:15:16;;;;;;;14.47;4.37;;;;;;;;;;6130385;28;20314;-63
2022/01/17 04:18:38;;;;;;;18.47;4.27;;;;;;;;;;6132198;28;20232;-64
2022/01/17 04:21:59;;;;;;;15.00;4.40;;;;;;;;;;6134659;28;20255;-63
2022/01/17 04:25:19;;;;;;;12.47;3.27;;;;;;;;;;6131747;28;20228;-64
2022/01/17 04:28:40;;;;;;;18.40;4.37;;;;;;;;;;6133016;28;20235;-63
2022/01/17 04:32:02;;;;;;;15.23;4.40;;;;;;;;;;6133480;28;20239;-63
2022/01/17 04:35:25;;;;;;;18.17;4.37;;;;;;;;;;6129939;28;20227;-63
2022/01/17 04:38:45;;;;;;;13.50;5.27;;;;;;;;;;6133900;28;20663;-64
2022/01/17 04:42:12;;;;;;;17.53;5.33;;;;;;;;;;6124561;28;20228;-63
2022/01/17 04:45:32;;;;;;;17.33;4.90;;;;;;;;;;6124191;28;20255;-62
2022/01/17 04:48:53;;;;;;;19.00;4.57;;;;;;;;;;6131330;28;20531;-63
2022/01/17 04:52:15;;;;;;;14.10;4.10;;;;;;;;;;6128959;28;20242;-64
2022/01/17 04:55:36;;;;;;;21.80;6.23;;;;;;;;;;6129536;28;20648;-63
2022/01/17 04:58:56;;;;;;;17.67;3.90;;;;;;;;;;6132128;28;20240;-63
2022/01/17 05:02:17;;;;;;;17.10;4.40;;;;;;;;;;6130682;28;20243;-63
2022/01/17 05:05:38;;;;;;;18.33;5.37;;;;;;;;;;6140471;28;20228;-63
2022/01/17 05:09:01;;;;;;;18.17;4.27;;;;;;;;;;6130737;28;21011;-63
2022/01/17 05:12:22;;;;;;;11.30;3.93;;;;;;;;;;6129052;28;20610;-64
2022/01/17 05:15:48;;;;;;;16.63;4.67;;;;;;;;;;6122494;28;20239;-63
2022/01/17 05:22:46;;;;;;;10.33;3.73;;;;;;;;;;6135063;28;20236;-64
2022/01/17 05:26:08;;;;;;;19.17;3.63;;;;;;;;;;6132429;28;21050;-63
2022/01/17 05:29:29;;;;;;;17.57;4.47;;;;;;;;;;6132833;28;20314;-64
2022/01/17 05:32:50;;;;;;;14.10;4.03;;;;;;;;;;6112279;28;20223;-63
2022/01/17 05:36:10;;;;;;;17.93;4.53;;;;;;;;;;6134157;28;20587;-63
2022/01/17 05:39:31;;;;;;;15.00;5.80;;;;;;;;;;6131254;28;20227;-63
2022/01/17 05:42:52;;;;;;;14.43;4.10;;;;;;;;;;6128685;28;20483;-63
2022/01/17 05:46:13;;;;;;;22.33;5.70;;;;;;;;;;6129795;28;20235;-63
2022/01/17 05:49:34;;;;;;;12.97;4.67;;;;;;;;;;6133019;28;20326;-63
2022/01/17 05:52:54;;;;;;;19.37;5.30;;;;;;;;;;6131833;28;20618;-63
2022/01/17 05:56:15;;;;;;;15.77;4.53;;;;;;;;;;6128523;28;20235;-65
2022/01/17 05:59:36;;;;;;;15.60;4.63;;;;;;;;;;6130126;28;20633;-64
2022/01/17 06:02:57;;;;;;;19.50;4.97;;;;;;;;;;6124111;28;22118;-64
2022/01/17 06:06:17;;;;;;;24.33;6.00;;;;;;;;;;6131986;28;20618;-63
2022/01/17 06:09:38;;;;;;;20.93;5.03;;;;;;;;;;6125281;28;20235;-63
2022/01/17 06:12:59;;;;;;;17.10;7.40;;;;;;;;;;6122632;28;20266;-64
2022/01/17 06:16:21;;;;;;;17.47;4.13;;;;;;;;;;6114129;28;20235;-64
2022/01/17 06:19:41;;;;;;;21.43;5.57;;;;;;;;;;6135032;28;20232;-63
2022/01/17 06:23:02;;;;;;;17.13;5.97;;;;;;;;;;6126355;28;20617;-63
2022/01/17 06:26:22;;;;;;;21.87;6.30;;;;;;;;;;6117269;28;20247;-63
2022/01/17 06:29:43;;;;;;;19.57;4.37;;;;;;;;;;6126793;28;20259;-63
2022/01/17 06:33:05;;;;;;;19.73;6.03;;;;;;;;;;6130814;28;20235;-63
2022/01/17 06:36:26;;;;;;;17.53;5.47;;;;;;;;;;6119122;28;20235;-63
2022/01/17 06:39:46;;;;;;;19.60;5.13;;;;;;;;;;6130407;28;20243;-65
2022/01/17 06:43:08;;;;;;;15.73;5.00;;;;;;;;;;6130773;28;20622;-64
2022/01/17 06:46:30;;;;;;;19.53;5.17;;;;;;;;;;6124708;28;20239;-65
2022/01/17 06:49:52;;;;;;;26.60;6.53;;;;;;;;;;6126159;28;20235;-63
2022/01/17 06:53:12;;;;;;;17.57;5.17;;;;;;;;;;6127246;28;20228;-64
2022/01/17 06:56:33;;;;;;;24.47;6.20;;;;;;;;;;6127778;28;20243;-64
2022/01/17 06:59:55;;;;;;;13.20;4.90;;;;;;;;;;6127021;28;20224;-63
2022/01/17 07:03:15;;;;;;;15.30;4.33;;;;;;;;;;6126469;28;20227;-63
2022/01/17 07:06:38;;;;;;;13.63;5.10;;;;;;;;;;6129606;28;20255;-63
2022/01/17 07:09:59;;;;;;;16.57;5.23;;;;;;;;;;6127103;28;20247;-64
2022/01/17 07:13:19;;;;;;;16.97;7.00;;;;;;;;;;6118669;28;20257;-64
2022/01/17 07:16:41;;;;;;;20.73;6.57;;;;;;;;;;6122988;28;20235;-64
2022/01/17 07:20:02;;;;;;;19.47;5.80;;;;;;;;;;6130283;28;20239;-64
2022/01/17 07:23:23;;;;;;;20.13;5.83;;;;;;;;;;6127643;28;20239;-64
2022/01/17 07:26:44;;;;;;;21.23;6.83;;;;;;;;;;6130897;28;20242;-64
2022/01/17 07:30:06;;;;;;;22.47;6.27;;;;;;;;;;6130824;28;20239;-63
2022/01/17 07:33:28;;;;;;;20.47;4.93;;;;;;;;;;6125778;28;20251;-64
2022/01/17 07:36:49;;;;;;;16.63;5.03;;;;;;;;;;6128122;28;20224;-63
2022/01/17 07:40:11;;;;;;;27.87;6.47;;;;;;;;;;6120083;28;20234;-63
2022/01/17 07:43:32;;;;;;;22.47;5.57;;;;;;;;;;6134030;28;20235;-63
2022/01/17 07:46:55;;;;;;;24.30;6.20;;;;;;;;;;6121471;28;20484;-63
2022/01/17 07:50:19;;;;;;;18.37;5.73;;;;;;;;;;6124634;28;20223;-63
2022/01/17 07:53:39;;;;;;;15.13;5.10;;;;;;;;;;6132905;28;20325;-63
2022/01/17 07:57:02;;;;;;;15.97;6.50;;;;;;;;;;6131990;28;20239;-64
2022/01/17 08:00:25;;;;;;;20.97;6.00;;;;;;;;;;6123449;28;20235;-63
2022/01/17 08:03:46;;;;;;;19.70;7.07;;;;;;;;;;6124258;28;20223;-64
2022/01/17 08:07:07;;;;;;;17.70;5.37;;;;;;;;;;6127286;28;20230;-64
2022/01/17 08:10:28;;;;;;;21.57;5.90;;;;;;;;;;6126660;28;20618;-63
2022/01/17 08:13:50;;;;;;;17.80;4.77;;;;;;;;;;6125893;28;20247;-64
2022/01/17 08:17:11;;;;;;;16.27;4.73;;;;;;;;;;6126963;28;20326;-64
2022/01/17 08:20:32;;;;;;;21.80;4.87;;;;;;;;;;6131067;28;20232;-64
2022/01/17 08:23:53;;;;;;;16.37;4.63;;;;;;;;;;6124299;28;20327;-64
2022/01/17 08:27:14;;;;;;;19.07;5.43;;;;;;;;;;6131578;28;20621;-63
2022/01/17 08:30:36;;;;;;;19.17;6.90;;;;;;;;;;6129060;28;20279;-64
2022/01/17 08:33:57;;;;;;;18.50;6.77;;;;;;;;;;6128547;28;20231;-64
2022/01/17 08:37:17;;;;;;;18.53;5.30;;;;;;;;;;6134450;28;20267;-63
2022/01/17 08:40:38;;;;;;;21.63;6.40;;;;;;;;;;6136884;28;20231;-64
2022/01/17 08:43:59;;;;;;;17.10;6.97;;;;;;;;;;6136825;28;20625;-65
2022/01/17 08:47:21;;;;;;;26.77;7.23;;;;;;;;;;6134646;28;20235;-64
2022/01/17 08:50:42;;;;;;;20.97;8.23;;;;;;;;;;6134013;28;20289;-63
2022/01/17 08:54:03;;;;;;;22.33;6.17;;;;;;;;;;6133640;28;20334;-64
2022/01/17 08:57:24;;;;;;;19.17;7.07;;;;;;;;;;6131114;28;20247;-64
2022/01/17 09:00:44;;;;;;;13.83;4.70;;;;;;;;;;6134281;28;20220;-63
2022/01/17 09:04:06;;;;;;;20.73;6.83;;;;;;;;;;6132538;28;20232;-63
2022/01/17 09:07:27;;;;;;;21.67;6.00;;;;;;;;;;6139333;28;20220;-63
2022/01/17 09:10:48;;;;;;;17.93;4.90;;;;;;;;;;6135027;28;20235;-63
2022/01/17 09:14:09;;;;;;;20.67;6.77;;;;;;;;;;6133192;28;20647;-63
2022/01/17 09:17:30;;;;;;;18.63;7.73;;;;;;;;;;6139719;28;20758;-63
2022/01/17 09:20:52;;;;;;;16.77;5.93;;;;;;;;;;6139245;28;20239;-63
2022/01/17 09:24:12;;;;;;;20.00;6.23;;;;;;;;;;6135009;28;20659;-62
2022/01/17 09:27:33;;;;;;;24.13;6.70;;;;;;;;;;6134561;28;20562;-63
2022/01/17 09:30:54;;;;;;;18.83;5.97;;;;;;;;;;6136784;28;20235;-64
2022/01/17 09:34:14;;;;;;;21.43;6.90;;;;;;;;;;6128827;28;20323;-64
2022/01/17 09:37:36;;;;;;;20.27;6.90;;;;;;;;;;6132787;28;20235;-62
2022/01/17 09:40:57;;;;;;;17.30;6.27;;;;;;;;;;6132951;28;20231;-64
2022/01/17 09:44:17;;;;;;;15.33;4.30;;;;;;;;;;6137736;28;20248;-64
2022/01/17 09:47:39;;;;;;;13.10;4.43;;;;;;;;;;6123531;28;20236;-63
2022/01/17 09:51:04;;;;;;;6.67;2.70;;;;;;;;;;6129082;28;21192;-64
2022/01/17 09:54:26;;;;;;;6.20;2.10;;;;;;;;;;6133123;28;20232;-62
2022/01/17 09:57:50;;;;;;;10.90;2.77;;;;;;;;;;6133069;28;20231;-62
2022/01/17 10:01:11;;;;;;;7.60;2.60;;;;;;;;;;6132710;28;20228;-63
2022/01/17 10:04:32;;;;;;;9.93;3.20;;;;;;;;;;6136071;28;20231;-64
2022/01/17 10:07:58;;;;;;;12.00;2.70;;;;;;;;;;6134167;28;20322;-63
2022/01/17 10:11:22;;;;;;;6.37;3.77;;;;;;;;;;6135430;28;20232;-64
2022/01/17 10:14:43;;;;;;;11.47;2.90;;;;;;;;;;6119687;28;20239;-64
2022/01/17 10:18:03;;;;;;;8.17;2.60;;;;;;;;;;6128570;28;20326;-63
2022/01/17 10:21:29;;;;;;;4.30;2.20;;;;;;;;;;6132721;28;20239;-63
2022/01/17 10:25:00;;;;;;;6.97;3.23;;;;;;;;;;6127840;28;20426;-63
2022/01/17 10:35:37;;;;;;;9.10;3.83;;;;;;;;;;6112207;28;20231;-64
2022/01/17 10:39:05;;;;;;;10.20;3.53;;;;;;;;;;6117723;28;20231;-64
2022/01/17 10:42:26;;;;;;;8.93;3.07;;;;;;;;;;6114888;28;20622;-64
2022/01/17 10:45:48;;;;;;;12.17;3.20;;;;;;;;;;6127333;28;20240;-64
2022/01/17 10:49:09;;;;;;;12.50;3.80;;;;;;;;;;6124863;28;20235;-63
2022/01/17 10:52:31;;;;;;;11.03;3.40;;;;;;;;;;6120726;28;20622;-63
2022/01/17 10:55:54;;;;;;;15.13;4.77;;;;;;;;;;6128899;28;20330;-65
2022/01/17 10:59:25;;;;;;;5.93;2.90;;;;;;;;;;6131997;28;20960;-64
2022/01/17 11:02:48;;;;;;;6.87;3.30;;;;;;;;;;6130757;28;20321;-63
2022/01/17 11:06:09;;;;;;;9.93;3.20;;;;;;;;;;6130621;28;20224;-65
2022/01/17 11:09:38;;;;;;;7.87;2.90;;;;;;;;;;6109003;28;20509;-63
2022/01/17 11:13:00;;;;;;;8.70;2.97;;;;;;;;;;6128517;28;20587;-63
2022/01/17 11:16:22;;;;;;;9.60;2.83;;;;;;;;;;6126232;28;20516;-63
2022/01/17 11:20:04;;;;;;;11.27;3.43;;;;;;;;;;6129769;28;20239;-63
2022/01/17 11:23:25;;;;;;;18.17;4.13;;;;;;;;;;6130475;28;20246;-64
2022/01/17 11:26:45;;;;;;;13.43;4.63;;;;;;;;;;6131831;28;20239;-64
2022/01/17 11:30:07;;;;;;;11.10;3.43;;;;;;;;;;6134474;28;20539;-63
2022/01/17 11:33:28;;;;;;;12.97;3.23;;;;;;;;;;6127036;28;20224;-65
2022/01/17 11:36:50;;;;;;;13.27;5.10;;;;;;;;;;6126973;28;20231;-63
2022/01/17 11:40:12;;;;;;;11.13;3.00;;;;;;;;;;6132666;28;20270;-64
2022/01/17 11:43:35;;;;;;;12.33;4.20;;;;;;;;;;6129102;28;20736;-64
2022/01/17 11:46:55;;;;;;;12.17;3.47;;;;;;;;;;6130112;28;20243;-63
2022/01/17 11:50:33;;;;;;;13.07;3.53;;;;;;;;;;6130041;28;25343;-61
2022/01/17 11:53:55;;;;;;;12.10;3.73;;;;;;;;;;6118590;28;20565;-63
2022/01/17 11:57:20;;;;;;;10.97;3.53;;;;;;;;;;6123934;28;20236;-63
2022/01/17 12:00:41;;;;;;;10.53;3.73;;;;;;;;;;6128486;28;20516;-63
2022/01/17 12:04:05;;;;;;;20.53;5.90;;;;;;;;;;6135944;28;20267;-62
2022/01/17 12:07:25;;;;;;;16.90;4.70;;;;;;;;;;6140957;28;20565;-63
2022/01/17 12:10:54;;;;;;;11.60;4.43;;;;;;;;;;6134108;28;20812;-64
2022/01/17 12:14:25;;;;;;;15.43;5.30;;;;;;;;;;6130931;28;20254;-64
2022/01/17 12:17:48;;;;;;;12.77;4.87;;;;;;;;;;6134394;28;20242;-63
2022/01/17 12:21:28;;;;;;;18.63;6.77;;;;;;;;;;6133045;28;20239;-63
2022/01/17 12:24:49;;;;;;;14.40;4.53;;;;;;;;;;6138236;28;21151;-63
2022/01/17 12:28:23;;;;;;;18.43;5.03;;;;;;;;;;6134438;28;20615;-64
2022/01/17 12:31:45;;;;;;;18.77;6.57;;;;;;;;;;6132485;28;20614;-65
2022/01/17 12:35:11;;;;;;;11.83;4.97;;;;;;;;;;6132096;28;20553;-63
2022/01/17 12:38:32;;;;;;;18.93;5.30;;;;;;;;;;6135088;28;20240;-64
2022/01/17 12:41:54;;;;;;;16.90;5.70;;;;;;;;;;6132602;28;20239;-63
2022/01/17 12:45:19;;;;;;;17.33;5.60;;;;;;;;;;6135090;28;20232;-64
2022/01/17 12:48:40;;;;;;;15.03;6.17;;;;;;;;;;6137498;28;20239;-62
2022/01/17 12:52:01;;;;;;;17.73;6.23;;;;;;;;;;6138301;28;20665;-63
2022/01/17 12:55:23;;;;;;;21.70;6.33;;;;;;;;;;6131686;28;20231;-64
2022/01/17 12:58:44;;;;;;;19.00;6.53;;;;;;;;;;6133858;28;20660;-65
2022/01/17 13:02:06;;;;;;;18.17;6.70;;;;;;;;;;6135983;28;21951;-63
2022/01/17 13:05:28;;;;;;;13.73;4.47;;;;;;;;;;6136784;28;20239;-65
2022/01/17 13:08:49;;;;;;;19.87;6.70;;;;;;;;;;6135682;28;20232;-64
2022/01/17 13:12:10;;;;;;;18.00;5.87;;;;;;;;;;6131636;28;20531;-63
2022/01/17 13:15:31;;;;;;;21.77;8.70;;;;;;;;;;6126076;28;21111;-64
2022/01/17 13:18:55;;;;;;;19.97;7.13;;;;;;;;;;6139898;28;20243;-64
2022/01/17 13:22:17;;;;;;;18.10;5.83;;;;;;;;;;6136602;28;20267;-64
2022/01/17 13:25:38;;;;;;;22.93;6.57;;;;;;;;;;6136049;28;20238;-63
2022/01/17 13:29:00;;;;;;;12.43;4.97;;;;;;;;;;6137867;28;20541;-64
2022/01/17 13:32:20;;;;;;;18.80;4.70;;;;;;;;;;6136683;28;20610;-65
2022/01/17 13:35:43;;;;;;;16.97;5.53;;;;;;;;;;6131142;28;20238;-63
2022/01/17 13:39:05;;;;;;;17.93;6.73;;;;;;;;;;6118532;28;20231;-65
2022/01/17 13:42:26;;;;;;;20.20;5.63;;;;;;;;;;6138225;28;20230;-63
2022/01/17 13:45:48;;;;;;;26.87;6.67;;;;;;;;;;6125225;28;20227;-64
2022/01/17 13:49:08;;;;;;;14.77;5.00;;;;;;;;;;6136936;28;20230;-65
2022/01/17 13:52:30;;;;;;;16.17;5.67;;;;;;;;;;6134878;28;20251;-65
2022/01/17 13:55:51;;;;;;;17.37;5.73;;;;;;;;;;6136973;28;20246;-64
2022/01/17 13:59:15;;;;;;;16.07;7.40;;;;;;;;;;6130869;28;20616;-65
2022/01/17 14:02:36;;;;;;;22.13;6.80;;;;;;;;;;6126797;28;20255;-65
2022/01/17 14:05:57;;;;;;;14.23;5.70;;;;;;;;;;6131300;28;20239;-64
2022/01/17 14:09:28;;;;;;;18.57;5.70;;;;;;;;;;6137779;28;20331;-63
2022/01/17 14:12:51;;;;;;;26.43;6.87;;;;;;;;;;6131863;28;20244;-64
2022/01/17 14:16:15;;;;;;;18.57;6.37;;;;;;;;;;6130547;28;20242;-64
2022/01/17 14:19:36;;;;;;;17.03;8.20;;;;;;;;;;6136925;28;20228;-64
2022/01/17 14:22:56;;;;;;;15.00;6.80;;;;;;;;;;6126933;28;20622;-64
2022/01/17 14:26:27;;;;;;;17.17;5.93;;;;;;;;;;6114505;28;20255;-63
2022/01/17 14:29:49;;;;;;;33.67;7.60;;;;;;;;;;6133049;28;20607;-63
2022/01/17 14:33:13;;;;;;;24.57;7.70;;;;;;;;;;6128722;28;20227;-63
2022/01/17 14:36:33;;;;;;;15.53;5.13;;;;;;;;;;6129837;28;20624;-64
2022/01/17 14:39:57;;;;;;;19.37;6.53;;;;;;;;;;6129683;28;20260;-64
2022/01/17 14:43:21;;;;;;;18.37;7.17;;;;;;;;;;6126531;28;20232;-64
2022/01/17 14:46:45;;;;;;;24.93;5.80;;;;;;;;;;6131907;28;20346;-64
2022/01/17 14:50:07;;;;;;;19.60;7.50;;;;;;;;;;6136211;28;20239;-63
2022/01/17 14:53:28;;;;;;;14.63;5.27;;;;;;;;;;6125353;28;20227;-64
2022/01/17 15:00:32;;;;;;;24.27;5.50;;;;;;;;;;6121155;28;20239;-64
2022/01/17 15:03:53;;;;;;;22.57;6.33;;;;;;;;;;6135525;28;20517;-62
2022/01/17 15:07:15;;;;;;;17.87;6.43;;;;;;;;;;6130495;28;21012;-63
2022/01/17 15:10:36;;;;;;;25.53;7.00;;;;;;;;;;6127817;28;20239;-63
2022/01/17 15:13:57;;;;;;;20.43;5.63;;;;;;;;;;6134958;28;20239;-64
2022/01/17 15:17:20;;;;;;;26.90;8.83;;;;;;;;;;6131789;28;20342;-65
2022/01/17 15:20:43;;;;;;;12.53;5.77;;;;;;;;;;6141502;28;20252;-64
2022/01/17 15:24:04;;;;;;;20.50;6.00;;;;;;;;;;6128126;28;20239;-64
2022/01/17 15:27:25;;;;;;;25.70;9.07;;;;;;;;;;6119303;28;20248;-64
2022/01/17 15:30:53;;;;;;;23.10;7.93;;;;;;;;;;6139380;28;20629;-64
2022/01/17 15:34:15;;;;;;;32.93;17.80;;;;;;;;;;6142417;28;20641;-63
2022/01/17 15:37:36;;;;;;;24.00;8.03;;;;;;;;;;6130678;28;20574;-64
2022/01/17 15:40:57;;;;;;;21.10;9.40;;;;;;;;;;6132286;28;20235;-64
2022/01/17 15:44:18;;;;;;;18.53;8.83;;;;;;;;;;6126372;28;20232;-65
2022/01/17 15:47:38;;;;;;;36.80;16.17;;;;;;;;;;6128394;28;20314;-64
2022/01/17 15:51:00;;;;;;;25.10;11.40;;;;;;;;;;6133369;28;20961;-64
2022/01/17 15:54:21;;;;;;;25.57;10.30;;;;;;;;;;6128268;28;20606;-65
2022/01/17 15:57:42;;;;;;;34.43;15.30;;;;;;;;;;6129197;28;20243;-64
2022/01/17 16:01:03;;;;;;;46.20;23.33;;;;;;;;;;6106890;28;20322;-64
2022/01/17 16:04:24;;;;;;;23.83;11.50;;;;;;;;;;6106877;28;20246;-66
2022/01/17 16:07:46;;;;;;;24.80;11.00;;;;;;;;;;6127857;28;20223;-65
2022/01/17 16:11:06;;;;;;;30.57;13.17;;;;;;;;;;6125256;28;20232;-65
2022/01/17 16:14:27;;;;;;;30.13;8.67;;;;;;;;;;6123451;28;20224;-65
2022/01/17 16:17:48;;;;;;;27.47;12.33;;;;;;;;;;6129264;28;20266;-67
2022/01/17 16:21:09;;;;;;;28.27;12.70;;;;;;;;;;6125152;28;20319;-65
2022/01/17 16:24:30;;;;;;;24.03;9.47;;;;;;;;;;6123854;28;20231;-66
2022/01/17 16:27:53;;;;;;;34.03;11.33;;;;;;;;;;6122735;28;20223;-66
2022/01/17 16:31:14;;;;;;;27.63;11.67;;;;;;;;;;6131758;28;20231;-66
2022/01/17 16:34:35;;;;;;;34.13;22.80;;;;;;;;;;6127785;28;20224;-66
2022/01/17 16:37:55;;;;;;;31.27;12.47;;;;;;;;;;6132003;28;20235;-65
2022/01/17 16:41:17;;;;;;;24.30;9.13;;;;;;;;;;6116882;28;20232;-66
2022/01/17 16:44:38;;;;;;;17.73;7.33;;;;;;;;;;6142148;28;20234;-66
2022/01/17 16:47:59;;;;;;;29.80;14.03;;;;;;;;;;6130682;28;20550;-66
2022/01/17 16:51:19;;;;;;;36.60;19.80;;;;;;;;;;6137092;28;20232;-65
2022/01/17 16:54:41;;;;;;;19.20;8.70;;;;;;;;;;6138751;28;20266;-65
2022/01/17 16:58:02;;;;;;;21.33;7.97;;;;;;;;;;6140055;28;20243;-66
2022/01/17 17:01:23;;;;;;;19.50;8.70;;;;;;;;;;6130534;28;20235;-65
2022/01/17 17:04:44;;;;;;;26.20;7.00;;;;;;;;;;6139134;28;20230;-66
2022/01/17 17:08:07;;;;;;;22.50;9.57;;;;;;;;;;6141205;28;20235;-64
2022/01/17 17:11:29;;;;;;;20.37;12.00;;;;;;;;;;6136986;28;20239;-66
2022/01/17 17:14:51;;;;;;;25.40;10.57;;;;;;;;;;6135676;28;20239;-65
2022/01/17 17:18:12;;;;;;;23.57;7.07;;;;;;;;;;6136293;28;20305;-65
2022/01/17 17:21:33;;;;;;;24.40;8.67;;;;;;;;;;6121984;28;20236;-65
2022/01/17 17:24:53;;;;;;;23.87;7.43;;;;;;;;;;6138306;28;20235;-65
2022/01/17 17:28:14;;;;;;;20.23;7.17;;;;;;;;;;6134082;28;20244;-66
2022/01/17 17:31:37;;;;;;;22.50;7.57;;;;;;;;;;6136527;28;20271;-65
2022/01/17 17:34:58;;;;;;;18.80;7.00;;;;;;;;;;6122678;28;20239;-66
2022/01/17 17:38:21;;;;;;;25.60;6.73;;;;;;;;;;6133309;28;20758;-65
2022/01/17 17:41:43;;;;;;;22.63;8.10;;;;;;;;;;6133102;28;20309;-65
2022/01/17 17:45:04;;;;;;;24.77;10.50;;;;;;;;;;6131747;28;20231;-64
2022/01/17 17:48:26;;;;;;;26.70;9.53;;;;;;;;;;6133568;28;20231;-64
2022/01/17 17:51:47;;;;;;;21.47;9.13;;;;;;;;;;6124009;28;20223;-64
2022/01/17 17:55:08;;;;;;;22.77;10.33;;;;;;;;;;6135946;28;20254;-65
2022/01/17 17:58:28;;;;;;;19.90;9.17;;;;;;;;;;6137096;28;20226;-65
2022/01/17 18:01:50;;;;;;;21.30;6.60;;;;;;;;;;6119160;28;20235;-65
2022/01/17 18:05:12;;;;;;;18.87;6.80;;;;;;;;;;6104237;28;20231;-65
2022/01/17 18:08:33;;;;;;;22.33;7.97;;;;;;;;;;6133165;28;20231;-65
2022/01/17 18:11:53;;;;;;;29.73;10.43;;;;;;;;;;6133274;28;20239;-65
2022/01/17 18:15:14;;;;;;;26.33;12.60;;;;;;;;;;6123882;28;20703;-65
2022/01/17 18:18:36;;;;;;;24.30;9.53;;;;;;;;;;6135380;28;20330;-66
2022/01/17 18:21:59;;;;;;;22.90;9.40;;;;;;;;;;6132361;28;20241;-65
2022/01/17 18:25:19;;;;;;;22.30;9.60;;;;;;;;;;6123452;28;20254;-66
2022/01/17 18:28:40;;;;;;;23.23;9.07;;;;;;;;;;6134198;28;20235;-66
2022/01/17 18:32:00;;;;;;;19.73;6.70;;;;;;;;;;6136141;28;20231;-66
2022/01/17 18:35:21;;;;;;;22.63;7.20;;;;;;;;;;6130731;28;20340;-65
2022/01/17 18:38:44;;;;;;;23.43;7.50;;;;;;;;;;6137525;28;20775;-65
2022/01/17 18:42:07;;;;;;;21.77;8.03;;;;;;;;;;6137472;28;20242;-64
2022/01/17 18:45:29;;;;;;;21.77;9.33;;;;;;;;;;6131229;28;20235;-65
2022/01/17 18:48:50;;;;;;;26.53;8.87;;;;;;;;;;6134496;28;20497;-65
2022/01/17 18:52:17;;;;;;;21.10;7.37;;;;;;;;;;6135793;28;20231;-64
2022/01/17 18:55:39;;;;;;;27.07;9.97;;;;;;;;;;6135787;28;20850;-65
2022/01/17 18:59:01;;;;;;;28.43;13.13;;;;;;;;;;6134513;28;20739;-65
2022/01/17 19:02:22;;;;;;;19.67;7.83;;;;;;;;;;6124935;28;20328;-65
2022/01/17 19:05:42;;;;;;;22.73;6.80;;;;;;;;;;6134186;28;20223;-65
2022/01/17 19:09:03;;;;;;;26.63;7.63;;;;;;;;;;6131382;28;20513;-65
2022/01/17 19:12:25;;;;;;;19.63;8.07;;;;;;;;;;6118872;28;20247;-66
2022/01/17 19:15:45;;;;;;;29.00;13.57;;;;;;;;;;6128964;28;20604;-65
2022/01/17 19:19:20;;;;;;;26.73;11.00;;;;;;;;;;6109087;28;20336;-64
2022/01/17 19:22:41;;;;;;;26.27;7.93;;;;;;;;;;6116204;28;20239;-64
2022/01/17 19:26:02;;;;;;;18.53;7.77;;;;;;;;;;6131639;28;20269;-63
2022/01/17 19:29:25;;;;;;;34.47;10.07;;;;;;;;;;6129910;28;20343;-62
2022/01/17 19:32:45;;;;;;;21.73;7.50;;;;;;;;;;6132078;28;20227;-64
2022/01/17 19:36:06;;;;;;;22.17;9.87;;;;;;;;;;6133502;28;20334;-65
2022/01/17 19:39:27;;;;;;;15.67;6.50;;;;;;;;;;6130819;28;20235;-65
2022/01/17 19:42:47;;;;;;;22.70;9.07;;;;;;;;;;6116415;28;20301;-64
2022/01/17 19:46:10;;;;;;;19.47;7.40;;;;;;;;;;6116981;28;20242;-65
2022/01/17 19:49:30;;;;;;;21.60;6.93;;;;;;;;;;6127846;28;20228;-63
2022/01/17 19:52:51;;;;;;;25.43;7.17;;;;;;;;;;6134849;28;20558;-63
2022/01/17 19:56:11;;;;;;;18.20;7.57;;;;;;;;;;6124574;28;20232;-63
2022/01/17 19:59:32;;;;;;;22.37;9.13;;;;;;;;;;6126783;28;20243;-63
2022/01/17 20:02:54;;;;;;;20.53;6.87;;;;;;;;;;6128708;28;20231;-63
2022/01/17 20:06:16;;;;;;;23.23;10.27;;;;;;;;;;6132505;28;20246;-64
2022/01/17 20:09:36;;;;;;;28.37;9.37;;;;;;;;;;6128056;28;20243;-64
2022/01/17 20:12:58;;;;;;;27.33;7.27;;;;;;;;;;6131242;28;20252;-64
2022/01/17 20:16:20;;;;;;;22.47;9.00;;;;;;;;;;6131411;28;20625;-64